sensor_id;sensor_type;location;lat;lon;timestamp;pressure;altitude;pressure_sealevel;temperature;humidity
62710;BME280;48770;51.624;5.886;2023-12-20T00:02:17;101418.66;;;19.68;46.15
62710;BME280;48770;51.624;5.886;2023-12-20T00:04:42;101418.53;;;19.64;46.05
62710;BME280;48770;51.624;5.886;2023-12-20T00:07:07;101420.47;;;19.64;45.99
62710;BME280;48770;51.624;5.886;2023-12-20T00:09:33;101422.78;;;19.62;46.04
62710;BME280;48770;51.624;5.886;2023-12-20T00:11:58;101429.47;;;19.61;46.12
62710;BME280;48770;51.624;5.886;2023-12-20T00:14:23;101415.13;;;19.59;45.94
62710;BME280;48770;51.624;5.886;2023-12-20T00:16:49;101423.44;;;19.59;46.06
62710;BME280;48770;51.624;5.886;2023-12-20T00:19:14;101430.13;;;19.58;45.94
62710;BME280;48770;51.624;5.886;2023-12-20T00:21:39;101427.69;;;19.56;46.04
62710;BME280;48770;51.624;5.886;2023-12-20T00:24:08;101435.19;;;19.56;46.04
62710;BME280;48770;51.624;5.886;2023-12-20T00:26:34;101439.09;;;19.55;45.98
62710;BME280;48770;51.624;5.886;2023-12-20T00:28:59;101431.13;;;19.53;45.96
62710;BME280;48770;51.624;5.886;2023-12-20T00:31:27;101437.78;;;19.52;45.99
62710;BME280;48770;51.624;5.886;2023-12-20T00:33:53;101440.56;;;19.52;45.97
62710;BME280;48770;51.624;5.886;2023-12-20T00:36:21;101430.91;;;19.50;46.05
62710;BME280;48770;51.624;5.886;2023-12-20T00:38:47;101435.31;;;19.51;46.14
62710;BME280;48770;51.624;5.886;2023-12-20T00:41:12;101424.06;;;19.47;45.84
62710;BME280;48770;51.624;5.886;2023-12-20T00:43:38;101419.31;;;19.48;46.09
62710;BME280;48770;51.624;5.886;2023-12-20T00:46:03;101414.94;;;19.47;45.82
62710;BME280;48770;51.624;5.886;2023-12-20T00:48:29;101414.94;;;19.47;46.14
62710;BME280;48770;51.624;5.886;2023-12-20T00:50:57;101416.06;;;19.46;46.11
62710;BME280;48770;51.624;5.886;2023-12-20T00:53:22;101412.47;;;19.45;46.08
62710;BME280;48770;51.624;5.886;2023-12-20T00:55:47;101413.97;;;19.42;45.77
62710;BME280;48770;51.624;5.886;2023-12-20T00:58:13;101423.09;;;19.43;45.91
62710;BME280;48770;51.624;5.886;2023-12-20T01:00:40;101419.50;;;19.42;45.90
62710;BME280;48770;51.624;5.886;2023-12-20T01:03:07;101418.22;;;19.40;45.86
62710;BME280;48770;51.624;5.886;2023-12-20T01:05:33;101419.84;;;19.41;46.07
62710;BME280;48770;51.624;5.886;2023-12-20T01:07:58;101420.16;;;19.39;45.77
62710;BME280;48770;51.624;5.886;2023-12-20T01:10:41;101418.53;;;19.38;45.79
62710;BME280;48770;51.624;5.886;2023-12-20T01:13:07;101417.25;;;19.36;45.90
62710;BME280;48770;51.624;5.886;2023-12-20T01:15:33;101430.28;;;19.35;45.96
62710;BME280;48770;51.624;5.886;2023-12-20T01:17:59;101431.09;;;19.36;45.68
62710;BME280;48770;51.624;5.886;2023-12-20T01:20:25;101425.41;;;19.32;45.77
62710;BME280;48770;51.624;5.886;2023-12-20T01:22:53;101428.19;;;19.32;45.84
62710;BME280;48770;51.624;5.886;2023-12-20T01:25:19;101430.94;;;19.32;45.77
62710;BME280;48770;51.624;5.886;2023-12-20T01:27:47;101426.53;;;19.31;45.82
62710;BME280;48770;51.624;5.886;2023-12-20T01:30:13;101426.53;;;19.31;45.82
62710;BME280;48770;51.624;5.886;2023-12-20T01:32:38;101431.59;;;19.29;45.77
62710;BME280;48770;51.624;5.886;2023-12-20T01:35:03;101424.09;;;19.30;45.79
62710;BME280;48770;51.624;5.886;2023-12-20T01:37:32;101428.34;;;19.27;45.54
62710;BME280;48770;51.624;5.886;2023-12-20T01:39:57;101436.16;;;19.25;45.77
62710;BME280;48770;51.624;5.886;2023-12-20T01:42:23;101437.81;;;19.26;45.76
62710;BME280;48770;51.624;5.886;2023-12-20T01:44:49;101436.16;;;19.25;45.76
62710;BME280;48770;51.624;5.886;2023-12-20T01:47:20;101433.38;;;19.25;45.92
62710;BME280;48770;51.624;5.886;2023-12-20T01:49:46;101427.34;;;19.23;45.63
62710;BME280;48770;51.624;5.886;2023-12-20T01:52:12;101424.91;;;19.22;45.71
62710;BME280;48770;51.624;5.886;2023-12-20T01:54:38;101428.50;;;19.22;45.69
62710;BME280;48770;51.624;5.886;2023-12-20T01:57:06;101427.66;;;19.22;45.59
62710;BME280;48770;51.624;5.886;2023-12-20T01:59:32;101429.63;;;19.21;45.74
62710;BME280;48770;51.624;5.886;2023-12-20T02:01:58;101437.94;;;19.21;45.69
62710;BME280;48770;51.624;5.886;2023-12-20T02:04:30;101441.88;;;19.20;45.71
62710;BME280;48770;51.624;5.886;2023-12-20T02:06:57;101437.47;;;19.19;45.70
62710;BME280;48770;51.624;5.886;2023-12-20T02:09:24;101433.06;;;19.18;45.67
62710;BME280;48770;51.624;5.886;2023-12-20T02:11:49;101431.44;;;19.17;45.72
62710;BME280;48770;51.624;5.886;2023-12-20T02:14:17;101429.81;;;19.16;45.72
62710;BME280;48770;51.624;5.886;2023-12-20T02:16:43;101430.63;;;19.17;45.64
62710;BME280;48770;51.624;5.886;2023-12-20T02:19:13;101442.84;;;19.16;45.50
62710;BME280;48770;51.624;5.886;2023-12-20T02:21:40;101432.09;;;19.14;45.66
62710;BME280;48770;51.624;5.886;2023-12-20T02:24:06;101444.31;;;19.13;45.79
62710;BME280;48770;51.624;5.886;2023-12-20T02:26:36;101437.97;;;19.13;45.36
62710;BME280;48770;51.624;5.886;2023-12-20T02:29:02;101437.97;;;19.13;45.30
62710;BME280;48770;51.624;5.886;2023-12-20T02:31:27;101429.66;;;19.13;45.51
62710;BME280;48770;51.624;5.886;2023-12-20T02:33:52;101431.13;;;19.10;45.63
62710;BME280;48770;51.624;5.886;2023-12-20T02:36:18;101427.53;;;19.09;45.42
62710;BME280;48770;51.624;5.886;2023-12-20T02:38:43;101427.84;;;19.08;45.62
62710;BME280;48770;51.624;5.886;2023-12-20T02:41:08;101432.59;;;19.07;45.59
62710;BME280;48770;51.624;5.886;2023-12-20T02:43:34;101431.78;;;19.07;45.30
62710;BME280;48770;51.624;5.886;2023-12-20T02:45:59;101433.41;;;19.08;45.33
62710;BME280;48770;51.624;5.886;2023-12-20T02:48:27;101438.13;;;19.07;45.36
62710;BME280;48770;51.624;5.886;2023-12-20T02:50:53;101444.00;;;19.06;45.48
62710;BME280;48770;51.624;5.886;2023-12-20T02:53:18;101436.50;;;19.06;45.32
62710;BME280;48770;51.624;5.886;2023-12-20T02:55:43;101434.06;;;19.05;45.24
62710;BME280;48770;51.624;5.886;2023-12-20T02:58:09;101434.88;;;19.05;45.45
62710;BME280;48770;51.624;5.886;2023-12-20T03:00:34;101427.69;;;19.04;45.28
62710;BME280;48770;51.624;5.886;2023-12-20T03:03:09;101419.22;;;19.01;45.48
62710;BME280;48770;51.624;5.886;2023-12-20T03:05:34;101423.63;;;19.02;45.33
62710;BME280;48770;51.624;5.886;2023-12-20T03:08:00;101416.13;;;19.02;45.25
62710;BME280;48770;51.624;5.886;2023-12-20T03:10:28;101416.44;;;19.01;45.41
62710;BME280;48770;51.624;5.886;2023-12-20T03:12:53;101422.00;;;19.01;45.29
62710;BME280;48770;51.624;5.886;2023-12-20T03:15:19;101413.97;;;18.99;45.33
62710;BME280;48770;51.624;5.886;2023-12-20T03:17:44;101416.75;;;18.99;45.25
62710;BME280;48770;51.624;5.886;2023-12-20T03:20:10;101408.75;;;18.98;45.14
62710;BME280;48770;51.624;5.886;2023-12-20T03:22:35;101407.13;;;18.97;45.10
62710;BME280;48770;51.624;5.886;2023-12-20T03:25:00;101405.19;;;18.97;45.16
62710;BME280;48770;51.624;5.886;2023-12-20T03:27:26;101396.38;;;18.95;44.91
62710;BME280;48770;51.624;5.886;2023-12-20T03:29:51;101399.16;;;18.95;45.19
62710;BME280;48770;51.624;5.886;2023-12-20T03:32:17;101396.38;;;18.95;45.11
62710;BME280;48770;51.624;5.886;2023-12-20T03:34:42;101406.66;;;18.95;45.18
62710;BME280;48770;51.624;5.886;2023-12-20T03:37:08;101402.25;;;18.94;45.12
62710;BME280;48770;51.624;5.886;2023-12-20T03:39:33;101403.06;;;18.94;45.09
62710;BME280;48770;51.624;5.886;2023-12-20T03:41:59;101397.84;;;18.93;45.04
62710;BME280;48770;51.624;5.886;2023-12-20T03:44:24;101401.75;;;18.92;45.01
62710;BME280;48770;51.624;5.886;2023-12-20T03:46:49;101397.03;;;18.92;45.15
62710;BME280;48770;51.624;5.886;2023-12-20T03:49:15;101401.75;;;18.92;44.91
62710;BME280;48770;51.624;5.886;2023-12-20T03:51:40;101395.41;;;18.91;45.20
62710;BME280;48770;51.624;5.886;2023-12-20T03:54:07;101382.38;;;18.92;44.91
62710;BME280;48770;51.624;5.886;2023-12-20T03:56:32;101378.28;;;18.89;45.14
62710;BME280;48770;51.624;5.886;2023-12-20T03:58:58;101369.97;;;18.89;44.95
62710;BME280;48770;51.624;5.886;2023-12-20T04:01:23;101373.88;;;18.88;45.22
62710;BME280;48770;51.624;5.886;2023-12-20T04:03:48;101382.53;;;18.87;44.95
62710;BME280;48770;51.624;5.886;2023-12-20T04:06:20;101385.97;;;18.84;44.99
62710;BME280;48770;51.624;5.886;2023-12-20T04:08:45;101402.25;;;18.85;44.85
62710;BME280;48770;51.624;5.886;2023-12-20T04:11:11;101397.53;;;18.86;44.91
62710;BME280;48770;51.624;5.886;2023-12-20T04:13:36;101410.56;;;18.85;44.88
62710;BME280;48770;51.624;5.886;2023-12-20T04:16:01;101418.06;;;18.85;44.90
62710;BME280;48770;51.624;5.886;2023-12-20T04:18:27;101413.34;;;18.85;44.79
62710;BME280;48770;51.624;5.886;2023-12-20T04:20:53;101404.53;;;18.83;44.96
62710;BME280;48770;51.624;5.886;2023-12-20T04:23:18;101404.53;;;18.83;44.89
62710;BME280;48770;51.624;5.886;2023-12-20T04:25:44;101409.25;;;18.83;44.94
62710;BME280;48770;51.624;5.886;2023-12-20T04:28:09;101404.53;;;18.83;44.92
62710;BME280;48770;51.624;5.886;2023-12-20T04:30:35;101406.00;;;18.81;44.74
62710;BME280;48770;51.624;5.886;2023-12-20T04:33:00;101390.19;;;18.81;44.80
62710;BME280;48770;51.624;5.886;2023-12-20T04:35:25;101400.47;;;18.81;44.79
62710;BME280;48770;51.624;5.886;2023-12-20T04:37:51;101402.41;;;18.80;44.71
62710;BME280;48770;51.624;5.886;2023-12-20T04:40:16;101398.84;;;18.79;44.71
62710;BME280;48770;51.624;5.886;2023-12-20T04:42:42;101385.31;;;18.78;44.74
62710;BME280;48770;51.624;5.886;2023-12-20T04:45:07;101396.06;;;18.79;44.78
62710;BME280;48770;51.624;5.886;2023-12-20T04:47:33;101383.34;;;18.78;44.71
62710;BME280;48770;51.624;5.886;2023-12-20T04:49:58;101384.50;;;18.77;44.88
62710;BME280;48770;51.624;5.886;2023-12-20T04:52:24;101396.38;;;18.78;44.78
62710;BME280;48770;51.624;5.886;2023-12-20T04:54:49;101398.66;;;18.76;44.52
62710;BME280;48770;51.624;5.886;2023-12-20T04:57:17;101400.31;;;18.77;44.65
62710;BME280;48770;51.624;5.886;2023-12-20T04:59:43;101395.91;;;18.76;44.73
62710;BME280;48770;51.624;5.886;2023-12-20T05:02:08;101406.66;;;18.77;44.74
62710;BME280;48770;51.624;5.886;2023-12-20T05:04:33;101396.22;;;18.74;44.56
62710;BME280;48770;51.624;5.886;2023-12-20T05:06:59;101394.28;;;18.75;44.60
62710;BME280;48770;51.624;5.886;2023-12-20T05:09:24;101396.22;;;18.74;44.64
62710;BME280;48770;51.624;5.886;2023-12-20T05:11:49;101393.75;;;18.73;44.71
62710;BME280;48770;51.624;5.886;2023-12-20T05:14:14;101393.75;;;18.73;44.67
62710;BME280;48770;51.624;5.886;2023-12-20T05:16:40;101391.31;;;18.71;44.50
62710;BME280;48770;51.624;5.886;2023-12-20T05:19:05;101382.19;;;18.71;44.46
62710;BME280;48770;51.624;5.886;2023-12-20T05:21:32;101384.63;;;18.72;44.57
62710;BME280;48770;51.624;5.886;2023-12-20T05:24:01;101394.06;;;18.71;44.55
62710;BME280;48770;51.624;5.886;2023-12-20T05:26:27;101382.19;;;18.71;44.49
62710;BME280;48770;51.624;5.886;2023-12-20T05:28:52;101379.41;;;18.71;44.38
62710;BME280;48770;51.624;5.886;2023-12-20T05:31:18;101379.75;;;18.69;44.50
62710;BME280;48770;51.624;5.886;2023-12-20T05:33:44;101375.81;;;18.70;44.62
62710;BME280;48770;51.624;5.886;2023-12-20T05:36:12;101390.00;;;18.69;44.49
62710;BME280;48770;51.624;5.886;2023-12-20T05:38:42;101383.16;;;18.66;44.47
62710;BME280;48770;51.624;5.886;2023-12-20T05:41:16;101376.81;;;18.66;44.56
62710;BME280;48770;51.624;5.886;2023-12-20T05:43:41;101372.91;;;18.67;44.44
62710;BME280;48770;51.624;5.886;2023-12-20T05:46:07;101379.25;;;18.67;44.48
62710;BME280;48770;51.624;5.886;2023-12-20T05:48:32;101370.44;;;18.65;44.25
62710;BME280;48770;51.624;5.886;2023-12-20T05:50:58;101373.22;;;18.65;44.29
62710;BME280;48770;51.624;5.886;2023-12-20T05:53:29;101373.22;;;18.65;44.56
62710;BME280;48770;51.624;5.886;2023-12-20T05:55:57;101380.72;;;18.65;44.45
62710;BME280;48770;51.624;5.886;2023-12-20T05:58:22;101375.19;;;18.65;44.54
62710;BME280;48770;51.624;5.886;2023-12-20T06:00:48;101378.28;;;18.63;44.25
62710;BME280;48770;51.624;5.886;2023-12-20T06:03:14;101380.22;;;18.63;44.54
62710;BME280;48770;51.624;5.886;2023-12-20T06:05:39;101381.03;;;18.63;44.48
62710;BME280;48770;51.624;5.886;2023-12-20T06:08:05;101384.94;;;18.62;44.55
62710;BME280;48770;51.624;5.886;2023-12-20T06:10:30;101389.66;;;18.62;44.30
62710;BME280;48770;51.624;5.886;2023-12-20T06:12:55;101399.63;;;18.63;44.36
62710;BME280;48770;51.624;5.886;2023-12-20T06:15:22;101397.13;;;18.61;44.38
62710;BME280;48770;51.624;5.886;2023-12-20T06:17:51;101389.66;;;18.62;44.19
62710;BME280;48770;51.624;5.886;2023-12-20T06:20:19;101390.50;;;18.62;44.55
62710;BME280;48770;51.624;5.886;2023-12-20T06:22:44;101388.00;;;18.61;44.44
62710;BME280;48770;51.624;5.886;2023-12-20T06:26:06;101393.88;;;18.59;44.33
62710;BME280;48770;51.624;5.886;2023-12-20T06:28:05;101392.25;;;18.58;44.33
62710;BME280;48770;51.624;5.886;2023-12-20T06:30:38;101404.16;;;18.59;44.18
62710;BME280;48770;51.624;5.886;2023-12-20T06:33:15;101400.88;;;18.57;44.19
62710;BME280;48770;51.624;5.886;2023-12-20T06:35:45;101399.75;;;18.58;44.22
62710;BME280;48770;51.624;5.886;2023-12-20T06:38:14;101387.84;;;18.57;44.24
62710;BME280;48770;51.624;5.886;2023-12-20T06:40:48;101385.41;;;18.56;44.23
62710;BME280;48770;51.624;5.886;2023-12-20T06:43:13;101386.72;;;18.58;44.35
62710;BME280;48770;51.624;5.886;2023-12-20T06:45:39;101390.63;;;18.57;44.19
62710;BME280;48770;51.624;5.886;2023-12-20T06:48:20;101391.28;;;18.54;44.26
62710;BME280;48770;51.624;5.886;2023-12-20T06:50:45;101390.13;;;18.55;44.25
62710;BME280;48770;51.624;5.886;2023-12-20T06:53:11;101388.50;;;18.54;44.20
62710;BME280;48770;51.624;5.886;2023-12-20T06:55:37;101392.91;;;18.55;44.32
62710;BME280;48770;51.624;5.886;2023-12-20T06:58:06;101390.47;;;18.54;44.06
62710;BME280;48770;51.624;5.886;2023-12-20T07:00:32;101399.59;;;18.54;44.13
62710;BME280;48770;51.624;5.886;2023-12-20T07:03:01;101384.09;;;18.53;44.11
62710;BME280;48770;51.624;5.886;2023-12-20T07:05:30;101387.69;;;18.54;44.17
62710;BME280;48770;51.624;5.886;2023-12-20T07:07:58;101380.53;;;18.53;44.20
62710;BME280;48770;51.624;5.886;2023-12-20T07:10:24;101376.94;;;18.52;44.02
62710;BME280;48770;51.624;5.886;2023-12-20T07:12:49;101385.25;;;18.52;44.26
62710;BME280;48770;51.624;5.886;2023-12-20T07:15:16;101390.28;;;18.50;44.26
62710;BME280;48770;51.624;5.886;2023-12-20T07:17:41;101384.44;;;18.52;44.19
62710;BME280;48770;51.624;5.886;2023-12-20T07:20:08;101389.97;;;18.52;44.12
62710;BME280;48770;51.624;5.886;2023-12-20T07:22:36;101383.13;;;18.49;44.02
62710;BME280;48770;51.624;5.886;2023-12-20T07:25:01;101387.53;;;18.50;44.00
62710;BME280;48770;51.624;5.886;2023-12-20T07:27:27;101383.28;;;18.53;43.93
62710;BME280;48770;51.624;5.886;2023-12-20T07:29:52;101392.91;;;18.55;44.11
62710;BME280;48770;51.624;5.886;2023-12-20T07:32:24;101392.91;;;18.55;43.92
62710;BME280;48770;51.624;5.886;2023-12-20T07:34:50;101396.97;;;18.58;43.90
62710;BME280;48770;51.624;5.886;2023-12-20T07:37:15;101392.75;;;18.60;43.84
62710;BME280;48770;51.624;5.886;2023-12-20T07:39:41;101384.44;;;18.60;43.74
62710;BME280;48770;51.624;5.886;2023-12-20T07:42:07;101390.97;;;18.64;43.58
62710;BME280;48770;51.624;5.886;2023-12-20T07:44:33;101392.28;;;18.67;43.80
62710;BME280;48770;51.624;5.886;2023-12-20T07:46:58;101385.59;;;18.68;43.55
62710;BME280;48770;51.624;5.886;2023-12-20T07:49:23;101374.53;;;18.68;43.50
62710;BME280;48770;51.624;5.886;2023-12-20T07:51:49;101373.88;;;18.71;43.71
62710;BME280;48770;51.624;5.886;2023-12-20T07:54:15;101383.00;;;18.71;43.55
62710;BME280;48770;51.624;5.886;2023-12-20T07:56:41;101379.91;;;18.73;43.67
62710;BME280;48770;51.624;5.886;2023-12-20T07:59:12;101367.72;;;18.74;43.46
62710;BME280;48770;51.624;5.886;2023-12-20T08:01:38;101370.97;;;18.76;43.53
62710;BME280;48770;51.624;5.886;2023-12-20T08:04:04;101366.25;;;18.76;43.44
62710;BME280;48770;51.624;5.886;2023-12-20T08:06:30;101375.03;;;18.78;43.40
62710;BME280;48770;51.624;5.886;2023-12-20T08:08:55;101381.41;;;18.79;43.37
62710;BME280;48770;51.624;5.886;2023-12-20T08:11:21;101383.03;;;18.80;43.37
62710;BME280;48770;51.624;5.886;2023-12-20T08:13:52;101376.66;;;18.79;43.05
62710;BME280;48770;51.624;5.886;2023-12-20T08:16:27;101394.91;;;18.81;43.34
62710;BME280;48770;51.624;5.886;2023-12-20T08:18:53;101404.03;;;18.81;43.11
62710;BME280;48770;51.624;5.886;2023-12-20T08:21:18;101392.97;;;18.81;43.08
62710;BME280;48770;51.624;5.886;2023-12-20T08:23:49;101403.41;;;18.84;43.12
62710;BME280;48770;51.624;5.886;2023-12-20T08:26:21;101399.81;;;18.84;43.21
62710;BME280;48770;51.624;5.886;2023-12-20T08:28:47;101414.81;;;18.83;43.33
62710;BME280;48770;51.624;5.886;2023-12-20T08:31:17;101415.63;;;18.83;43.22
62710;BME280;48770;51.624;5.886;2023-12-20T08:33:49;101407.78;;;18.85;43.09
62710;BME280;48770;51.624;5.886;2023-12-20T08:36:15;101407.78;;;18.85;43.13
62710;BME280;48770;51.624;5.886;2023-12-20T08:38:40;101404.69;;;18.87;42.97
62710;BME280;48770;51.624;5.886;2023-12-20T08:41:06;101410.25;;;18.87;43.09
62710;BME280;48770;51.624;5.886;2023-12-20T08:43:36;101402.75;;;18.87;43.02
62710;BME280;48770;51.624;5.886;2023-12-20T08:46:02;101398.50;;;18.90;42.83
62710;BME280;48770;51.624;5.886;2023-12-20T08:48:28;101392.97;;;18.90;42.96
62710;BME280;48770;51.624;5.886;2023-12-20T08:50:54;101383.50;;;18.91;42.95
62710;BME280;48770;51.624;5.886;2023-12-20T08:53:22;101389.03;;;18.91;43.08
62710;BME280;48770;51.624;5.886;2023-12-20T08:55:48;101387.09;;;18.91;42.88
62710;BME280;48770;51.624;5.886;2023-12-20T08:58:13;101373.22;;;18.91;42.90
62710;BME280;48770;51.624;5.886;2023-12-20T09:00:42;101375.69;;;18.93;43.07
62710;BME280;48770;51.624;5.886;2023-12-20T09:03:07;101382.38;;;18.92;42.96
62710;BME280;48770;51.624;5.886;2023-12-20T09:05:33;101375.69;;;18.93;42.78
62710;BME280;48770;51.624;5.886;2023-12-20T09:07:59;101370.94;;;18.93;42.77
62710;BME280;48770;51.624;5.886;2023-12-20T09:10:24;101374.53;;;18.94;43.02
62710;BME280;48770;51.624;5.886;2023-12-20T09:12:56;101377.31;;;18.94;42.75
62710;BME280;48770;51.624;5.886;2023-12-20T09:15:28;101372.56;;;18.94;42.75
62710;BME280;48770;51.624;5.886;2023-12-20T09:17:55;101394.75;;;18.94;42.92
62710;BME280;48770;51.624;5.886;2023-12-20T09:20:24;101386.09;;;18.96;42.79
62710;BME280;48770;51.624;5.886;2023-12-20T09:22:49;101378.59;;;18.96;42.86
62710;BME280;48770;51.624;5.886;2023-12-20T09:25:15;101383.00;;;18.97;42.73
62710;BME280;48770;51.624;5.886;2023-12-20T09:27:43;101386.59;;;18.98;42.74
62710;BME280;48770;51.624;5.886;2023-12-20T09:30:18;101381.06;;;18.98;42.60
62710;BME280;48770;51.624;5.886;2023-12-20T09:32:46;101383.00;;;18.97;42.92
62710;BME280;48770;51.624;5.886;2023-12-20T09:35:14;101384.63;;;18.98;42.64
62710;BME280;48770;51.624;5.886;2023-12-20T09:37:40;101368.81;;;18.99;42.80
62710;BME280;48770;51.624;5.886;2023-12-20T09:40:11;101374.38;;;18.99;42.79
62710;BME280;48770;51.624;5.886;2023-12-20T09:45:20;101379.41;;;18.97;42.69
62710;BME280;48770;51.624;5.886;2023-12-20T09:48:10;101371.09;;;18.97;42.81
62710;BME280;48770;51.624;5.886;2023-12-20T09:50:36;101379.09;;;18.98;42.78
62710;BME280;48770;51.624;5.886;2023-12-20T09:53:18;101380.72;;;18.99;42.85
62710;BME280;48770;51.624;5.886;2023-12-20T09:55:57;101376.03;;;19.00;42.71
62710;BME280;48770;51.624;5.886;2023-12-20T09:58:27;101389.03;;;18.99;42.61
62710;BME280;48770;51.624;5.886;2023-12-20T10:00:53;101385.44;;;18.99;42.63
62710;BME280;48770;51.624;5.886;2023-12-20T10:03:24;101379.28;;;19.02;42.64
62710;BME280;48770;51.624;5.886;2023-12-20T10:05:53;101375.38;;;19.03;42.61
62710;BME280;48770;51.624;5.886;2023-12-20T10:08:21;101383.69;;;19.03;42.66
62710;BME280;48770;51.624;5.886;2023-12-20T10:10:48;101367.06;;;19.03;42.64
62710;BME280;48770;51.624;5.886;2023-12-20T10:13:14;101365.91;;;19.04;42.52
62710;BME280;48770;51.624;5.886;2023-12-20T10:15:43;101359.88;;;19.02;42.66
62710;BME280;48770;51.624;5.886;2023-12-20T10:18:09;101368.34;;;19.05;42.71
62710;BME280;48770;51.624;5.886;2023-12-20T10:20:35;101369.50;;;19.04;42.55
62710;BME280;48770;51.624;5.886;2023-12-20T10:23:02;101372.28;;;19.04;42.48
62710;BME280;48770;51.624;5.886;2023-12-20T10:25:27;101362.47;;;19.07;42.55
62710;BME280;48770;51.624;5.886;2023-12-20T10:28:12;101379.28;;;19.02;42.59
62710;BME280;48770;51.624;5.886;2023-12-20T10:30:39;101380.59;;;19.04;42.62
62710;BME280;48770;51.624;5.886;2023-12-20T10:33:08;101378.63;;;19.05;42.68
62710;BME280;48770;51.624;5.886;2023-12-20T10:35:35;101375.84;;;19.05;42.56
62710;BME280;48770;51.624;5.886;2023-12-20T10:38:03;101377.47;;;19.06;42.61
62710;BME280;48770;51.624;5.886;2023-12-20T10:40:30;101379.09;;;19.07;43.17
62710;BME280;48770;51.624;5.886;2023-12-20T10:42:55;101375.69;;;19.10;43.42
62710;BME280;48770;51.624;5.886;2023-12-20T10:45:22;101361.16;;;19.13;43.81
62710;BME280;48770;51.624;5.886;2023-12-20T10:47:49;101357.06;;;19.19;43.71
62710;BME280;48770;51.624;5.886;2023-12-20T10:50:15;101338.81;;;19.27;43.63
62710;BME280;48770;51.624;5.886;2023-12-20T10:52:41;101333.56;;;19.34;43.54
62710;BME280;48770;51.624;5.886;2023-12-20T10:55:07;101335.97;;;19.44;42.94
62710;BME280;48770;51.624;5.886;2023-12-20T10:57:36;101330.44;;;19.53;42.84
62710;BME280;48770;51.624;5.886;2023-12-20T11:00:01;101336.38;;;19.81;42.41
62710;BME280;48770;51.624;5.886;2023-12-20T11:02:32;101334.63;;;20.06;42.46
62710;BME280;48770;51.624;5.886;2023-12-20T11:07:50;101331.06;;;20.26;41.88
62710;BME280;48770;51.624;5.886;2023-12-20T11:10:23;101318.00;;;20.56;41.60
62710;BME280;48770;51.624;5.886;2023-12-20T11:12:57;101313.22;;;20.77;41.69
62710;BME280;48770;51.624;5.886;2023-12-20T11:15:24;101319.44;;;20.95;41.22
62710;BME280;48770;51.624;5.886;2023-12-20T11:17:57;101321.59;;;21.10;41.01
62710;BME280;48770;51.624;5.886;2023-12-20T11:20:23;101317.53;;;21.41;39.81
62710;BME280;48770;51.624;5.886;2023-12-20T11:22:55;101322.56;;;21.72;39.41
62710;BME280;48770;51.624;5.886;2023-12-20T11:25:21;101323.38;;;21.84;39.35
62710;BME280;48770;51.624;5.886;2023-12-20T11:28:07;101322.34;;;21.89;39.27
62710;BME280;48770;51.624;5.886;2023-12-20T11:30:41;101328.84;;;21.93;38.90
62710;BME280;48770;51.624;5.886;2023-12-20T11:33:07;101326.19;;;22.21;38.59
62710;BME280;48770;51.624;5.886;2023-12-20T11:35:33;101321.50;;;22.37;38.36
62710;BME280;48770;51.624;5.886;2023-12-20T11:38:00;101305.25;;;22.39;38.74
62710;BME280;48770;51.624;5.886;2023-12-20T11:40:26;101308.84;;;22.40;38.29
62710;BME280;48770;51.624;5.886;2023-12-20T11:42:51;101315.91;;;22.37;38.35
62710;BME280;48770;51.624;5.886;2023-12-20T11:45:24;101310.28;;;22.62;37.79
62710;BME280;48770;51.624;5.886;2023-12-20T11:47:50;101310.25;;;22.74;37.74
62710;BME280;48770;51.624;5.886;2023-12-20T11:50:17;101306.66;;;22.73;38.09
62710;BME280;48770;51.624;5.886;2023-12-20T11:52:42;101310.16;;;22.70;38.09
62710;BME280;48770;51.624;5.886;2023-12-20T11:55:08;101300.53;;;22.68;37.93
62710;BME280;48770;51.624;5.886;2023-12-20T11:57:33;101298.38;;;22.89;37.80
62710;BME280;48770;51.624;5.886;2023-12-20T11:59:59;101282.75;;;23.00;37.76
62710;BME280;48770;51.624;5.886;2023-12-20T12:02:25;101268.34;;;22.98;37.72
62710;BME280;48770;51.624;5.886;2023-12-20T12:04:50;101281.41;;;22.94;38.05
62710;BME280;48770;51.624;5.886;2023-12-20T12:07:16;101276.88;;;22.90;37.85
62710;BME280;48770;51.624;5.886;2023-12-20T12:09:42;101283.84;;;23.12;37.64
62710;BME280;48770;51.624;5.886;2023-12-20T12:12:08;101279.75;;;23.21;37.23
62710;BME280;48770;51.624;5.886;2023-12-20T12:14:33;101280.47;;;23.18;37.30
62710;BME280;48770;51.624;5.886;2023-12-20T12:17:00;101279.44;;;23.11;37.93
62710;BME280;48770;51.624;5.886;2023-12-20T12:19:26;101276.47;;;23.03;37.74
62710;BME280;48770;51.624;5.886;2023-12-20T12:22:08;101266.50;;;23.18;37.63
62710;BME280;48770;51.624;5.886;2023-12-20T12:24:38;101264.88;;;23.33;37.05
62710;BME280;48770;51.624;5.886;2023-12-20T12:27:05;101266.78;;;23.29;37.24
62710;BME280;48770;51.624;5.886;2023-12-20T12:29:30;101266.59;;;23.22;37.41
62710;BME280;48770;51.624;5.886;2023-12-20T12:31:56;101260.81;;;23.15;37.62
62710;BME280;48770;51.624;5.886;2023-12-20T12:34:22;101253.19;;;23.27;37.22
62710;BME280;48770;51.624;5.886;2023-12-20T12:36:48;101238.53;;;23.46;37.12
62710;BME280;48770;51.624;5.886;2023-12-20T12:39:13;101248.06;;;23.45;37.13
62710;BME280;48770;51.624;5.886;2023-12-20T12:41:40;101243.09;;;23.38;37.36
62710;BME280;48770;51.624;5.886;2023-12-20T12:44:06;101258.50;;;23.32;36.87
62710;BME280;48770;51.624;5.886;2023-12-20T12:46:31;101252.91;;;23.32;37.28
62710;BME280;48770;51.624;5.886;2023-12-20T12:48:58;101246.63;;;23.51;36.86
62710;BME280;48770;51.624;5.886;2023-12-20T12:51:23;101250.13;;;23.48;36.42
62710;BME280;48770;51.624;5.886;2023-12-20T12:53:49;101242.28;;;23.38;36.58
62710;BME280;48770;51.624;5.886;2023-12-20T12:56:15;101233.66;;;23.27;37.12